Time;durP1;ratioP1;P1;durP2;ratioP2;P2;SDS_P1;SDS_P2;PMS_P1;PMS_P2;Temp;Humidity;BMP_temperature;BMP_pressure;BME280_temperature;BME280_humidity;BME280_pressure;Samples;Min_cycle;Max_cycle;Signal;HPM_P1;HPM_P2
2021/09/09 00:02:12;;;;;;;23.73;12.47;;;;;;;15.95;100.00;101078.31;7394465;19;20421;-52
2021/09/09 00:04:42;;;;;;;20.10;12.93;;;;;;;15.99;100.00;101077.53;7398785;19;20409;-54
2021/09/09 00:07:14;;;;;;;37.90;24.40;;;;;;;15.98;100.00;101067.09;7394470;19;20490;-57
2021/09/09 00:09:44;;;;;;;40.60;26.00;;;;;;;15.95;100.00;101069.63;7398977;19;20715;-55
2021/09/09 00:12:13;;;;;;;31.10;19.80;;;;;;;15.85;100.00;101068.50;7394366;19;20417;-55
2021/09/09 00:14:43;;;;;;;44.00;26.73;;;;;;;15.85;100.00;101060.69;7397554;19;20393;-53
2021/09/09 00:17:12;;;;;;;39.57;25.70;;;;;;;15.89;100.00;101068.59;7396437;19;20426;-55
2021/09/09 00:19:42;;;;;;;25.70;16.33;;;;;;;15.88;100.00;101061.63;7406053;19;20854;-55
2021/09/09 00:22:14;;;;;;;33.53;21.17;;;;;;;15.87;100.00;101072.00;7401105;19;20419;-53
2021/09/09 00:24:43;;;;;;;30.67;19.30;;;;;;;15.80;100.00;101063.19;7405913;19;20388;-57
2021/09/09 00:27:12;;;;;;;35.07;21.30;;;;;;;15.80;100.00;101058.84;7401311;19;20479;-55
2021/09/09 00:29:42;;;;;;;44.87;27.40;;;;;;;15.82;100.00;101060.59;7405705;19;20463;-56
2021/09/09 00:32:11;;;;;;;67.93;42.07;;;;;;;15.82;100.00;101065.78;7400168;19;20897;-57
2021/09/09 00:34:41;;;;;;;38.70;24.70;;;;;;;15.71;100.00;101063.81;7405395;19;20472;-52
2021/09/09 00:37:10;;;;;;;37.50;23.67;;;;;;;15.66;100.00;101065.41;7399973;19;20417;-53
2021/09/09 00:39:42;;;;;;;38.80;25.10;;;;;;;15.67;100.00;101059.38;7405418;19;20723;-57
2021/09/09 00:42:12;;;;;;;44.57;27.83;;;;;;;15.73;100.00;101056.03;7400717;19;20440;-54
2021/09/09 00:44:41;;;;;;;32.63;19.17;;;;;;;15.71;100.00;101048.22;7406214;19;20390;-53
2021/09/09 00:47:12;;;;;;;27.70;17.57;;;;;;;15.67;100.00;101056.78;7400584;19;20439;-56
2021/09/09 00:49:44;;;;;;;24.33;16.13;;;;;;;15.63;100.00;101061.03;7404550;19;20399;-53
2021/09/09 00:52:15;;;;;;;28.40;18.70;;;;;;;15.69;100.00;101065.47;7400329;19;20443;-51
2021/09/09 00:54:49;;;;;;;23.30;14.27;;;;;;;15.75;100.00;101057.84;7404689;19;20394;-56
2021/09/09 00:57:19;;;;;;;25.20;17.50;;;;;;;15.71;100.00;101058.63;7399971;19;20460;-55
2021/09/09 00:59:49;;;;;;;22.87;13.23;;;;;;;15.60;100.00;101049.66;7404805;19;20694;-57
2021/09/09 01:02:18;;;;;;;21.30;14.23;;;;;;;15.60;100.00;101049.66;7399617;19;20434;-57
2021/09/09 01:04:49;;;;;;;19.83;13.30;;;;;;;15.57;100.00;101050.47;7403579;19;20507;-57
2021/09/09 01:07:19;;;;;;;29.93;16.70;;;;;;;15.59;100.00;101043.56;7399930;19;20878;-57
2021/09/09 01:09:51;;;;;;;28.33;17.43;;;;;;;15.58;100.00;101044.41;7404509;19;20400;-53
2021/09/09 01:12:20;;;;;;;25.53;17.13;;;;;;;15.51;100.00;101046.00;7399433;19;20934;-57
2021/09/09 01:14:49;;;;;;;36.90;23.90;;;;;;;15.55;100.00;101046.94;7403912;19;20468;-52
2021/09/09 01:17:19;;;;;;;41.73;26.63;;;;;;;15.51;100.00;101043.38;7399521;19;20908;-57
2021/09/09 01:19:48;;;;;;;27.17;18.10;;;;;;;15.50;100.00;101041.59;7404152;19;20472;-56
2021/09/09 01:22:18;;;;;;;24.97;15.83;;;;;;;15.50;100.00;101049.41;7399413;19;20429;-58
2021/09/09 01:24:50;;;;;;;20.03;12.37;;;;;;;15.37;100.00;101047.31;7402913;19;20458;-52
2021/09/09 01:27:20;;;;;;;17.37;12.90;;;;;;;15.28;100.00;101047.09;7398781;19;20491;-57
2021/09/09 01:29:49;;;;;;;24.33;14.53;;;;;;;15.32;100.00;101048.91;7403696;19;20399;-52
2021/09/09 01:32:19;;;;;;;27.00;14.10;;;;;;;15.30;100.00;101042.81;7398879;19;20419;-57
2021/09/09 01:34:48;;;;;;;24.33;14.20;;;;;;;15.22;100.00;101051.28;7403590;19;20855;-52
2021/09/09 01:37:18;;;;;;;21.63;14.87;;;;;;;15.24;100.00;101052.19;7397701;19;20511;-52
2021/09/09 01:39:50;;;;;;;21.07;15.03;;;;;;;15.22;100.00;101048.69;7403346;19;20400;-55
2021/09/09 01:42:19;;;;;;;18.23;13.20;;;;;;;15.27;100.00;101045.34;7397902;19;20445;-50
2021/09/09 01:44:49;;;;;;;22.53;15.77;;;;;;;15.23;100.00;101050.44;7403121;19;20456;-52
2021/09/09 01:47:19;;;;;;;21.97;14.50;;;;;;;15.21;100.00;101046.03;7398806;19;20427;-54
2021/09/09 01:49:49;;;;;;;26.60;16.73;;;;;;;15.18;100.00;101044.22;7403202;19;20483;-53
2021/09/09 01:52:18;;;;;;;23.20;15.43;;;;;;;15.19;100.00;101043.41;7398315;19;20446;-55
2021/09/09 01:54:50;;;;;;;25.17;13.93;;;;;;;15.21;100.00;101040.84;7402834;19;20921;-54
2021/09/09 01:57:19;;;;;;;20.60;13.43;;;;;;;15.32;100.00;101035.91;7393809;19;20440;-53
2021/09/09 01:59:49;;;;;;;20.03;14.43;;;;;;;15.35;100.00;101033.41;7401861;19;20387;-56
2021/09/09 02:02:18;;;;;;;19.33;13.70;;;;;;;15.34;100.00;101027.31;7394532;19;20967;-56
2021/09/09 02:04:48;;;;;;;24.23;13.90;;;;;;;15.24;100.00;101025.34;7402326;19;20686;-52
2021/09/09 02:07:17;;;;;;;23.37;15.07;;;;;;;15.28;100.00;101034.09;7394898;19;20435;-52
2021/09/09 02:09:49;;;;;;;20.70;15.07;;;;;;;15.22;100.00;101038.28;7402643;19;20396;-53
2021/09/09 02:12:19;;;;;;;22.07;15.90;;;;;;;15.16;100.00;101027.72;7394234;19;20482;-53
2021/09/09 02:14:48;;;;;;;20.00;13.63;;;;;;;15.05;100.00;101029.13;7402747;19;20402;-54
2021/09/09 02:17:18;;;;;;;24.47;14.80;;;;;;;15.03;100.00;101025.63;7392644;19;20460;-54
2021/09/09 02:19:47;;;;;;;22.20;15.30;;;;;;;15.08;100.00;101031.84;7401215;19;20447;-56
2021/09/09 02:22:17;;;;;;;21.77;14.47;;;;;;;15.01;100.00;101028.19;7394241;19;20916;-58
2021/09/09 02:24:47;;;;;;;23.73;16.27;;;;;;;14.96;100.00;101027.16;7401774;19;20404;-52
2021/09/09 02:27:20;;;;;;;24.30;15.10;;;;;;;14.90;100.00;101027.00;7394187;19;20703;-57
2021/09/09 02:29:49;;;;;;;24.40;16.47;;;;;;;14.88;100.00;101021.78;7401832;19;20459;-55
2021/09/09 02:32:19;;;;;;;22.93;14.80;;;;;;;14.92;100.00;101026.19;7393703;19;20915;-47
2021/09/09 02:34:48;;;;;;;24.00;15.83;;;;;;;14.91;100.00;101021.84;7400490;19;20860;-58
2021/09/09 02:37:17;;;;;;;19.80;13.73;;;;;;;14.93;100.00;101014.97;7392995;19;20700;-54
2021/09/09 02:39:48;;;;;;;23.40;14.97;;;;;;;15.02;100.00;101010.88;7399682;19;20730;-53
2021/09/09 02:42:20;;;;;;;23.27;15.03;;;;;;;14.96;100.00;101009.88;7393704;19;20503;-53
2021/09/09 02:44:50;;;;;;;20.80;14.43;;;;;;;14.94;100.00;101001.16;7402047;19;20394;-53
2021/09/09 02:47:19;;;;;;;27.70;16.90;;;;;;;14.94;100.00;101000.28;7393404;19;20427;-55
2021/09/09 02:49:49;;;;;;;21.43;13.30;;;;;;;14.94;100.00;101001.16;7401270;19;20468;-57
2021/09/09 02:52:18;;;;;;;19.53;14.13;;;;;;;14.93;100.00;100996.78;7396253;19;20407;-58
2021/09/09 02:54:48;;;;;;;21.53;13.90;;;;;;;14.88;100.00;100995.81;7400268;19;20451;-52
2021/09/09 02:57:17;;;;;;;22.17;14.53;;;;;;;14.87;100.00;100999.22;7391607;19;20709;-52
2021/09/09 02:59:49;;;;;;;22.30;14.97;;;;;;;14.89;100.00;100991.47;7400980;19;20440;-54
2021/09/09 03:02:19;;;;;;;23.27;13.17;;;;;;;14.74;100.00;100986.69;7395850;19;20411;-51
2021/09/09 03:04:49;;;;;;;22.87;13.53;;;;;;;14.63;100.00;101002.84;7400504;19;20384;-53
2021/09/09 03:07:18;;;;;;;20.40;14.63;;;;;;;14.70;100.00;100991.81;7396112;19;20475;-56
2021/09/09 03:09:48;;;;;;;18.57;13.07;;;;;;;14.65;100.00;100990.78;7400190;19;20388;-55
2021/09/09 03:12:17;;;;;;;19.90;15.33;;;;;;;14.66;100.00;100984.75;7395505;19;20427;-57
2021/09/09 03:14:49;;;;;;;25.20;17.10;;;;;;;14.64;100.00;100986.44;7400058;19;20388;-54
2021/09/09 03:17:20;;;;;;;23.87;17.93;;;;;;;14.65;100.00;100983.00;7394850;19;20419;-48
2021/09/09 03:19:49;;;;;;;21.30;14.27;;;;;;;14.69;100.00;100976.19;7400335;19;20398;-54
2021/09/09 03:22:19;;;;;;;21.37;14.70;;;;;;;14.77;100.00;100984.22;7395715;19;20419;-55
2021/09/09 03:24:49;;;;;;;20.63;14.90;;;;;;;14.75;100.00;100971.19;7399910;19;20730;-56
2021/09/09 03:27:18;;;;;;;22.50;15.33;;;;;;;14.75;100.00;100968.59;7395501;19;20422;-54
2021/09/09 03:29:50;;;;;;;22.70;15.27;;;;;;;14.69;100.00;100961.50;7399639;19;20384;-48
2021/09/09 03:32:19;;;;;;;21.90;14.90;;;;;;;14.69;100.00;100964.09;7395125;19;20447;-53
2021/09/09 03:34:49;;;;;;;21.90;15.10;;;;;;;14.65;100.00;100961.34;7399637;19;20451;-58
2021/09/09 03:37:18;;;;;;;22.40;15.30;;;;;;;14.62;100.00;100961.25;7394618;19;20462;-53
2021/09/09 03:39:48;;;;;;;24.97;15.77;;;;;;;14.57;100.00;100953.34;7399651;19;20388;-54
2021/09/09 03:42:17;;;;;;;22.43;15.67;;;;;;;14.51;100.00;100950.56;7395630;19;20866;-51
2021/09/09 03:44:50;;;;;;;21.37;15.60;;;;;;;14.52;100.00;100949.75;7399167;19;20444;-51
2021/09/09 03:47:19;;;;;;;21.47;15.50;;;;;;;14.52;100.00;100944.53;7394233;19;20415;-57
2021/09/09 03:49:49;;;;;;;26.73;15.30;;;;;;;14.48;100.00;100943.59;7399248;19;20402;-51
2021/09/09 03:52:18;;;;;;;24.47;17.37;;;;;;;14.49;100.00;100941.84;7394602;19;20429;-58
2021/09/09 03:54:48;;;;;;;26.07;15.47;;;;;;;14.49;100.00;100944.44;7398989;19;20466;-54
2021/09/09 03:57:17;;;;;;;21.37;14.83;;;;;;;14.42;100.00;100943.41;7391407;19;20482;-55
2021/09/09 03:59:49;;;;;;;26.53;17.00;;;;;;;14.38;100.00;100942.44;7399025;19;20406;-51
2021/09/09 04:02:19;;;;;;;21.37;15.90;;;;;;;14.42;100.00;100941.66;7394170;19;20889;-54
2021/09/09 04:04:49;;;;;;;25.47;17.00;;;;;;;14.45;100.00;100939.19;7398750;19;20417;-54
2021/09/09 04:07:18;;;;;;;27.10;18.83;;;;;;;14.43;100.00;100933.06;7389981;19;20423;-54
2021/09/09 04:09:48;;;;;;;34.00;21.53;;;;;;;14.48;100.00;100928.00;7398849;19;20387;-53
2021/09/09 04:12:17;;;;;;;37.50;23.10;;;;;;;14.52;100.00;100929.84;7390765;19;20510;-54
2021/09/09 04:14:49;;;;;;;34.43;20.43;;;;;;;14.48;100.00;100930.59;7398399;19;20402;-57
2021/09/09 04:17:19;;;;;;;34.07;23.30;;;;;;;14.37;100.00;100935.50;7390815;19;20415;-52
2021/09/09 04:19:48;;;;;;;31.30;20.30;;;;;;;14.37;100.00;100930.31;7396685;19;20391;-52
2021/09/09 04:22:17;;;;;;;23.57;17.00;;;;;;;14.31;100.00;100932.72;7390547;19;20695;-55
2021/09/09 04:24:47;;;;;;;23.30;17.67;;;;;;;14.26;100.00;100931.69;7398214;19;20439;-54
2021/09/09 04:27:19;;;;;;;40.57;28.37;;;;;;;14.20;100.00;100926.31;7389217;19;20449;-54
2021/09/09 04:29:51;;;;;;;35.90;24.30;;;;;;;14.23;100.00;100927.28;7398306;19;20406;-52
2021/09/09 04:32:21;;;;;;;38.17;24.60;;;;;;;14.30;100.00;100925.75;7390199;19;20511;-51
2021/09/09 04:34:51;;;;;;;36.13;24.30;;;;;;;14.30;100.00;100923.16;7397842;19;20383;-52
2021/09/09 04:37:20;;;;;;;35.00;20.40;;;;;;;14.29;100.00;100926.59;7390479;19;20429;-57
2021/09/09 04:39:50;;;;;;;27.70;18.73;;;;;;;14.22;100.00;100929.84;7396162;19;20669;-52
2021/09/09 04:42:20;;;;;;;23.93;18.13;;;;;;;14.21;100.00;100933.28;7390468;19;20725;-55
2021/09/09 04:44:52;;;;;;;33.40;22.90;;;;;;;14.24;100.00;100928.16;7397284;19;20390;-50
2021/09/09 04:47:21;;;;;;;25.57;17.53;;;;;;;14.23;100.00;100919.50;7389610;19;20423;-52
2021/09/09 04:49:50;;;;;;;24.57;18.20;;;;;;;14.16;100.00;100921.03;7397689;19;20411;-57
2021/09/09 04:52:20;;;;;;;29.87;18.00;;;;;;;14.13;100.00;100926.16;7389984;19;20415;-51
2021/09/09 04:54:49;;;;;;;31.53;22.00;;;;;;;14.21;100.00;100920.31;7397473;19;20454;-57
2021/09/09 04:57:19;;;;;;;28.80;19.00;;;;;;;14.14;100.00;100922.72;7389781;19;20436;-50
2021/09/09 04:59:48;;;;;;;28.20;19.57;;;;;;;14.14;100.00;100916.63;7395599;19;20386;-55
2021/09/09 05:02:20;;;;;;;26.30;18.63;;;;;;;14.15;100.00;100914.09;7388837;19;20490;-49
2021/09/09 05:04:50;;;;;;;27.03;19.00;;;;;;;14.12;100.00;100919.19;7404625;19;20413;-56
2021/09/09 05:07:19;;;;;;;30.90;19.90;;;;;;;14.16;100.00;100908.06;7396787;19;20415;-56
2021/09/09 05:09:49;;;;;;;34.33;21.90;;;;;;;14.17;100.00;100908.94;7404430;19;20451;-55
2021/09/09 05:12:18;;;;;;;35.10;23.17;;;;;;;14.16;100.00;100905.47;7396071;19;20415;-58
2021/09/09 05:14:48;;;;;;;32.70;21.20;;;;;;;14.25;100.00;100904.00;7403800;19;20416;-52
2021/09/09 05:17:17;;;;;;;34.80;20.33;;;;;;;14.25;100.00;100898.81;7396463;19;20426;-58
2021/09/09 05:19:49;;;;;;;30.00;20.13;;;;;;;14.28;100.00;100894.59;7401969;19;20402;-55
2021/09/09 05:22:19;;;;;;;31.23;21.03;;;;;;;14.32;100.00;100895.53;7395525;19;20943;-56
2021/09/09 05:24:48;;;;;;;26.63;20.13;;;;;;;14.35;100.00;100892.16;7403544;19;20465;-56
2021/09/09 05:27:18;;;;;;;29.53;20.33;;;;;;;14.44;100.00;100895.00;7395705;19;20423;-58
2021/09/09 05:29:47;;;;;;;28.23;17.83;;;;;;;14.48;100.00;100885.56;7403706;19;20399;-57
2021/09/09 05:32:16;;;;;;;24.63;18.60;;;;;;;14.47;100.00;100889.03;7394948;19;20436;-55
2021/09/09 05:34:46;;;;;;;26.80;19.50;;;;;;;14.42;100.00;100886.31;7403237;19;20396;-59
2021/09/09 05:37:18;;;;;;;27.10;18.80;;;;;;;14.39;100.00;100887.09;7394468;19;20416;-49
2021/09/09 05:39:47;;;;;;;28.70;17.73;;;;;;;14.47;100.00;100891.63;7401951;19;20386;-56
2021/09/09 05:42:17;;;;;;;26.47;18.40;;;;;;;14.55;100.00;100882.31;7395199;19;20411;-54
2021/09/09 05:44:46;;;;;;;25.70;18.60;;;;;;;14.63;100.00;100886.03;7403008;19;20758;-57
2021/09/09 05:47:16;;;;;;;24.10;17.03;;;;;;;14.60;100.00;100885.91;7395388;19;20874;-57
2021/09/09 05:49:45;;;;;;;30.10;18.50;;;;;;;14.63;100.00;100882.53;7402590;19;20471;-58
2021/09/09 05:52:17;;;;;;;25.43;18.03;;;;;;;14.67;100.00;100885.25;7395175;19;20431;-54
2021/09/09 05:54:47;;;;;;;24.30;17.80;;;;;;;14.72;100.00;100873.25;7401718;19;20406;-55
2021/09/09 05:57:16;;;;;;;30.10;17.93;;;;;;;14.71;100.00;100874.09;7395084;19;20439;-58
2021/09/09 05:59:46;;;;;;;27.50;18.07;;;;;;;14.82;100.00;100874.41;7401575;19;20395;-50
2021/09/09 06:02:17;;;;;;;27.80;19.37;;;;;;;14.84;100.00;100874.47;7390132;19;20711;-55
2021/09/09 06:04:48;;;;;;;27.63;17.97;;;;;;;14.91;100.00;100865.97;7402300;19;20410;-57
2021/09/09 06:07:20;;;;;;;24.57;18.13;;;;;;;14.96;100.00;100863.50;7394793;19;20418;-52
2021/09/09 06:09:49;;;;;;;28.13;19.20;;;;;;;14.96;100.00;100864.38;7402544;19;20690;-54
2021/09/09 06:12:19;;;;;;;23.30;17.53;;;;;;;15.05;100.00;100865.44;7394036;19;20486;-53
2021/09/09 06:14:49;;;;;;;23.73;17.20;;;;;;;15.13;100.00;100861.34;7398597;19;20666;-53
2021/09/09 06:17:18;;;;;;;26.63;18.63;;;;;;;15.18;100.00;100864.91;7394544;19;20486;-54
2021/09/09 06:19:47;;;;;;;27.50;17.93;;;;;;;15.18;100.00;100859.72;7401775;19;20455;-57
2021/09/09 06:22:20;;;;;;;25.80;18.20;;;;;;;15.32;100.00;100862.66;7394032;19;20490;-51
2021/09/09 06:24:50;;;;;;;29.07;18.70;;;;;;;15.36;100.00;100861.00;7401842;19;20388;-53
2021/09/09 06:27:19;;;;;;;26.77;17.80;;;;;;;15.42;100.00;100866.34;7394284;19;20423;-54
2021/09/09 06:29:49;;;;;;;23.63;17.30;;;;;;;15.44;100.00;100867.25;7401588;19;20709;-56
2021/09/09 06:32:18;;;;;;;27.20;19.47;;;;;;;15.56;100.00;100865.78;7393249;19;20415;-57
2021/09/09 06:34:48;;;;;;;37.73;21.50;;;;;;;15.70;100.00;100861.81;7401275;19;20408;-48
2021/09/09 06:37:21;;;;;;;35.60;22.53;;;;;;;15.76;100.00;100859.34;7393911;19;20416;-56
2021/09/09 06:39:51;;;;;;;70.83;34.60;;;;;;;15.83;100.00;100862.94;7404244;19;20880;-54
2021/09/09 06:42:22;;;;;;;49.13;28.50;;;;;;;15.91;100.00;100863.09;7393638;19;20427;-54
2021/09/09 06:44:51;;;;;;;50.50;32.83;;;;;;;15.96;100.00;100858.91;7401239;19;20409;-51
2021/09/09 06:47:21;;;;;;;37.10;25.73;;;;;;;16.04;100.00;100857.34;7393004;19;20756;-51
2021/09/09 06:49:50;;;;;;;31.20;19.53;;;;;;;16.06;100.00;100850.44;7400236;19;20397;-54
2021/09/09 06:52:22;;;;;;;30.47;20.87;;;;;;;16.09;100.00;100859.16;7393444;19;20427;-55
2021/09/09 06:54:51;;;;;;;33.13;21.73;;;;;;;16.14;100.00;100854.91;7400789;19;20392;-55
2021/09/09 06:57:21;;;;;;;25.43;17.33;;;;;;;16.16;100.00;100866.25;7393033;19;20419;-49
2021/09/09 06:59:50;;;;;;;33.60;17.97;;;;;;;16.30;100.00;100856.09;7400469;19;20884;-52
2021/09/09 07:02:20;;;;;;;32.93;22.60;;;;;;;16.38;100.00;100858.84;7392735;19;20436;-56
2021/09/09 07:04:50;;;;;;;30.43;20.10;;;;;;;16.49;100.00;100857.34;7400342;19;20401;-56
2021/09/09 07:07:22;;;;;;;40.30;25.73;;;;;;;16.52;100.00;100857.41;7392173;19;20434;-57
2021/09/09 07:09:51;;;;;;;24.63;17.00;;;;;;;16.52;100.00;100857.41;7400682;19;20380;-58
2021/09/09 07:12:20;;;;;;;25.50;17.90;;;;;;;16.58;100.00;100857.53;7392551;19;20936;-56
2021/09/09 07:14:50;;;;;;;31.37;20.27;;;;;;;16.68;100.00;100852.47;7399896;19;20876;-54
2021/09/09 07:17:19;;;;;;;25.10;17.50;;;;;;;16.66;100.00;100851.59;7392386;19;20487;-56
2021/09/09 07:19:49;;;;;;;27.63;18.70;;;;;;;16.71;100.00;100847.31;7399632;19;20383;-56
2021/09/09 07:22:18;;;;;;;26.27;18.57;;;;;;;16.81;100.00;100843.16;7391700;19;20421;-55
2021/09/09 07:24:50;;;;;;;21.97;15.30;;;;;;;16.87;100.00;100844.13;7399486;19;20465;-59
2021/09/09 07:27:20;;;;;;;21.60;15.83;;;;;;;17.01;100.00;100851.31;7391479;19;20427;-56
2021/09/09 07:29:54;;;;;;;22.87;17.00;;;;;;;17.06;100.00;100852.28;7399874;19;20387;-54
2021/09/09 07:32:25;;;;;;;25.33;16.87;;;;;;;17.10;100.00;100838.47;7391960;19;20442;-51
2021/09/09 07:34:54;;;;;;;20.20;14.67;;;;;;;17.19;100.00;100844.66;7399643;19;20452;-54
2021/09/09 07:37:24;;;;;;;26.07;18.43;;;;;;;17.27;100.00;100836.13;7391568;19;21288;-55
2021/09/09 07:39:56;;;;;;;19.27;14.70;;;;;;;17.36;100.00;100826.66;7398364;19;20922;-55
2021/09/09 07:42:25;;;;;;;81.63;47.47;;;;;;;17.49;100.00;100832.97;7391647;19;20479;-51
2021/09/09 07:44:55;;;;;;;61.93;37.90;;;;;;;17.58;100.00;100838.28;7399310;19;20410;-58
2021/09/09 07:47:27;;;;;;;31.63;19.10;;;;;;;17.65;100.00;100829.69;7391664;19;20411;-54
2021/09/09 07:49:56;;;;;;;20.10;14.10;;;;;;;17.68;100.00;100821.91;7398975;19;20846;-56
2021/09/09 07:52:26;;;;;;;23.53;13.70;;;;;;;17.74;100.00;100825.47;7391427;19;20498;-57
2021/09/09 07:54:58;;;;;;;23.47;15.00;;;;;;;17.85;100.00;100823.00;7398776;19;20460;-55
2021/09/09 07:57:27;;;;;;;18.50;12.80;;;;;;;17.93;100.00;100824.84;7390552;19;20478;-54
2021/09/09 07:59:59;;;;;;;15.73;12.47;;;;;;;17.97;100.00;100817.94;7398408;19;20372;-57
2021/09/09 08:02:28;;;;;;;18.83;13.20;;;;;;;18.03;100.00;100824.94;7390287;19;20414;-55
2021/09/09 08:04:58;;;;;;;19.27;14.00;;;;;;;18.11;100.00;100831.19;7398739;19;20403;-53
2021/09/09 08:07:28;;;;;;;17.90;13.27;;;;;;;18.26;100.00;100830.50;7391152;19;20706;-57
2021/09/09 08:10:00;;;;;;;23.63;13.97;;;;;;;18.38;100.00;100821.91;7398858;19;20396;-56
2021/09/09 08:12:29;;;;;;;23.07;14.80;;;;;;;18.49;100.00;100827.22;7390900;19;20486;-49
2021/09/09 08:14:58;;;;;;;23.87;12.73;;;;;;;18.59;100.00;100826.47;7398379;19;20402;-52
2021/09/09 08:17:28;;;;;;;21.10;11.77;;;;;;;18.72;100.00;100821.34;7389403;19;20422;-55
2021/09/09 08:19:57;;;;;;;23.00;12.60;;;;;;;18.84;100.00;100818.84;7398211;19;20399;-56
2021/09/09 08:22:27;;;;;;;16.93;12.40;;;;;;;18.92;100.00;100831.09;7390412;19;20486;-57
2021/09/09 08:24:59;;;;;;;19.70;12.20;;;;;;;18.99;100.00;100830.28;7398182;19;20391;-59
2021/09/09 08:27:30;;;;;;;17.70;13.03;;;;;;;19.09;100.00;100831.25;7390654;19;20423;-56
2021/09/09 08:30:00;;;;;;;51.90;33.17;;;;;;;19.19;100.00;100833.09;7398327;19;20394;-58
2021/09/09 08:32:29;;;;;;;15.77;12.00;;;;;;;19.24;100.00;100828.78;7389879;19;20490;-55
2021/09/09 08:34:59;;;;;;;20.70;14.10;;;;;;;19.33;100.00;100834.94;7397556;19;20455;-56
2021/09/09 08:37:29;;;;;;;29.27;13.70;;;;;;;19.40;100.00;100829.75;7390383;19;20475;-57
2021/09/09 08:40:01;;;;;;;17.03;12.03;;;;;;;19.51;100.00;100828.94;7409896;19;20408;-57
2021/09/09 08:42:30;;;;;;;23.70;13.07;;;;;;;19.59;100.00;100826.38;7397091;19;20415;-57
2021/09/09 08:45:01;;;;;;;16.17;11.87;;;;;;;19.65;100.00;100826.41;7405098;19;20443;-56
2021/09/09 08:47:31;;;;;;;17.67;12.60;;;;;;;19.75;100.00;100825.59;7400946;19;20887;-54
2021/09/09 08:50:00;;;;;;;18.43;12.27;;;;;;;19.84;100.00;100817.75;7405193;19;20384;-56
2021/09/09 08:52:30;;;;;;;15.67;11.23;;;;;;;19.89;100.00;100814.28;7399229;19;20430;-55
2021/09/09 08:55:02;;;;;;;15.37;10.23;;;;;;;19.99;100.00;100816.09;7404516;19;20398;-53
2021/09/09 08:57:32;;;;;;;16.23;10.77;;;;;;;20.03;100.00;100812.63;7400588;19;20425;-59
2021/09/09 09:00:02;;;;;;;23.47;10.13;;;;;;;20.17;100.00;100807.44;7404928;19;20900;-56
2021/09/09 09:02:33;;;;;;;15.70;10.20;;;;;;;20.31;100.00;100812.69;7398525;19;20450;-53
2021/09/09 09:05:06;;;;;;;15.33;10.33;;;;;;;20.37;100.00;100802.22;7404592;19;20392;-54
2021/09/09 09:07:39;;;;;;;14.40;10.60;;;;;;;20.49;100.00;100805.75;7399327;19;20441;-57
2021/09/09 09:10:12;;;;;;;18.37;12.03;;;;;;;20.56;100.00;100806.63;7403640;19;20456;-55
2021/09/09 09:12:44;;;;;;;20.50;10.37;;;;;;;20.71;100.00;100801.38;7398893;19;20494;-58
2021/09/09 09:15:19;;;;;;;13.00;10.10;;;;;;;20.88;100.00;100793.56;7404412;19;20669;-58
2021/09/09 09:18:01;;;;;;;19.47;10.87;;;;;;;20.99;100.00;100801.44;7400524;19;20425;-53
2021/09/09 09:20:46;;;;;;;17.63;10.43;;;;;;;21.06;100.00;100791.78;7403906;19;20873;-57
2021/09/09 09:23:18;;;;;;;17.57;10.20;;;;;;;21.10;100.00;100785.69;7398424;19;20428;-57
2021/09/09 09:25:54;;;;;;;14.90;11.07;;;;;;;21.15;100.00;100781.31;7403443;19;20394;-58
2021/09/09 09:28:42;;;;;;;12.50;9.50;;;;;;;21.28;100.00;100783.91;7403303;19;20414;-54
2021/09/09 09:31:14;;;;;;;15.97;10.03;;;;;;;21.41;100.00;100783.00;7399921;19;20444;-53
2021/09/09 09:33:47;;;;;;;17.00;9.33;;;;;;;21.48;100.00;100780.34;7401511;19;20420;-54
2021/09/09 09:36:22;;;;;;;10.17;8.33;;;;;;;21.61;100.00;100783.78;7399047;19;20470;-52
2021/09/09 09:38:52;;;;;;;14.70;8.30;;;;;;;21.69;100.00;100775.03;7403019;19;20402;-58
2021/09/09 09:41:26;;;;;;;10.40;8.03;;;;;;;21.81;100.00;100775.88;7399327;19;20500;-54
2021/09/09 09:44:05;;;;;;;14.43;8.93;;;;;;;21.97;100.00;100777.53;7403362;19;20392;-55
2021/09/09 09:46:37;;;;;;;22.70;9.27;;;;;;;22.09;100.00;100765.19;7395358;19;20425;-56
2021/09/09 09:49:24;;;;;;;19.43;9.40;;;;;;;22.19;100.00;100769.53;7401736;19;20457;-55
2021/09/09 09:51:55;;;;;;;13.27;8.77;;;;;;;22.19;100.00;100766.91;7395562;19;20737;-53
2021/09/09 09:54:26;;;;;;;11.83;8.47;;;;;;;22.32;100.00;100772.06;7402876;19;20467;-53
2021/09/09 09:56:59;;;;;;;13.00;9.33;;;;;;;22.36;100.00;100769.41;7395228;19;20424;-55
2021/09/09 09:59:29;;;;;;;15.60;9.00;;;;;;;22.50;100.00;100766.69;7402965;19;20449;-54
2021/09/09 10:02:00;;;;;;;20.20;9.17;;;;;;;22.60;100.00;100766.66;7394727;19;20485;-55
2021/09/09 10:04:30;;;;;;;13.60;8.00;;;;;;;22.64;100.00;100758.72;7402709;19;20386;-54
2021/09/09 10:07:00;;;;;;;14.13;8.50;;;;;;;22.73;100.00;100760.41;7394231;19;20426;-52
2021/09/09 10:09:30;;;;;;;11.57;7.77;;;;;;;22.90;100.00;100751.47;7402698;19;20398;-55
2021/09/09 10:12:02;;;;;;;14.10;8.13;;;;;;;22.97;100.00;100752.28;7394643;19;20417;-58
2021/09/09 10:14:32;;;;;;;15.10;9.00;;;;;;;23.01;100.00;100751.34;7402150;19;20395;-53
2021/09/09 10:17:03;;;;;;;15.03;8.37;;;;;;;23.10;100.00;100746.00;7394396;19;20711;-54
2021/09/09 10:19:34;;;;;;;14.20;7.83;;;;;;;23.21;100.00;100753.78;7402211;19;20456;-51
2021/09/09 10:22:14;;;;;;;16.27;9.07;;;;;;;23.33;100.00;100747.56;7393512;19;20695;-54
2021/09/09 10:24:46;;;;;;;12.23;8.37;;;;;;;23.44;100.00;100747.44;7401861;19;20406;-56
2021/09/09 10:27:23;;;;;;;10.77;7.57;;;;;;;23.49;100.00;100742.97;7383944;19;20471;-54
2021/09/09 10:29:59;;;;;;;12.67;8.00;;;;;;;23.67;100.00;100740.97;7401864;19;20404;-55
2021/09/09 10:32:59;;;;;;;13.00;8.20;;;;;;;23.76;100.00;100735.59;7396058;19;20470;-56
2021/09/09 10:35:34;;;;;;;13.13;7.93;;;;;;;23.84;100.00;100733.72;7400657;19;20395;-55
2021/09/09 10:38:29;;;;;;;10.60;7.40;;;;;;;23.96;100.00;100737.97;7394351;19;20498;-57
2021/09/09 10:41:01;;;;;;;13.67;8.10;;;;;;;24.14;100.00;100747.38;7393871;19;20470;-55
2021/09/09 10:43:52;;;;;;;11.00;8.00;;;;;;;24.05;100.00;100734.31;7397686;19;20500;-52
2021/09/09 10:46:21;;;;;;;15.00;8.10;;;;;;;24.04;100.00;100740.47;7397424;19;20471;-55
2021/09/09 10:49:07;;;;;;;13.13;7.47;;;;;;;24.27;100.00;100726.13;7401025;19;20392;-50
2021/09/09 10:51:36;;;;;;;12.30;7.70;;;;;;;24.39;100.00;100730.31;7397530;19;20924;-57
2021/09/09 10:54:06;;;;;;;12.53;8.10;;;;;;;24.62;100.00;100723.78;7400964;19;20409;-54
2021/09/09 10:56:37;;;;;;;9.90;6.90;;;;;;;24.52;100.00;100725.72;7396362;19;20407;-50
2021/09/09 10:59:13;;;;;;;13.53;7.20;;;;;;;24.47;100.00;100722.28;7400149;19;20466;-52
2021/09/09 11:01:46;;;;;;;14.50;7.20;;;;;;;24.58;100.00;100725.63;7383984;19;20441;-54
2021/09/09 11:04:30;;;;;;;13.50;8.10;;;;;;;24.59;97.42;100719.44;7400827;19;20394;-53
2021/09/09 11:07:00;;;;;;;15.30;7.07;;;;;;;24.65;95.56;100719.31;7395780;19;20423;-54
2021/09/09 11:09:31;;;;;;;12.17;7.33;;;;;;;24.74;96.55;100707.75;7400690;19;20388;-55
2021/09/09 11:12:03;;;;;;;14.70;6.97;;;;;;;24.85;98.33;100718.13;7396407;19;20486;-55
2021/09/09 11:14:35;;;;;;;12.03;7.37;;;;;;;25.06;100.00;100726.53;7400539;19;20393;-55
2021/09/09 11:17:05;;;;;;;14.23;7.77;;;;;;;25.04;98.03;100712.50;7394559;19;20486;-57
2021/09/09 11:19:34;;;;;;;16.90;9.43;;;;;;;25.18;98.62;100704.31;7400231;19;20448;-54